This is the latest recevied weather packets stored in our database for station/object OE3WYC-1. If no packets are shown the sender has not sent any weather packets the latest 10 day(s).
| Time | Temp. | Humidity | Pressure | Rain* | Wind** | Luminosity | Snow |
|---|---|---|---|---|---|---|---|
| 1777785007 | 8.33° C | 75% | 1018.5 hPa | 0 mm | - | - | - |
| 1777781106 | 7.78° C | 73% | 1018.3 hPa | 0 mm | - | - | - |
| 1777780805 | 8.33° C | 73% | 1018.2 hPa | 0 mm | - | - | - |
| 1777777205 | 8.33° C | 72% | 1018 hPa | 0 mm | - | - | - |
| 1777775105 | 8.33° C | 72% | 1018 hPa | 0 mm | - | - | - |
| 1777773305 | 8.33° C | 72% | 1017.8 hPa | 0 mm | - | - | - |
| 1777772105 | 8.89° C | 70% | 1017.6 hPa | 0 mm | - | - | - |
| 1777771805 | 8.89° C | 70% | 1017.7 hPa | 0 mm | - | - | - |
| 1777770907 | 9.44° C | 70% | 1017.5 hPa | 0 mm | - | - | - |
| 1777769104 | 10° C | 69% | 1017.6 hPa | 0 mm | - | - | - |
| 1777767005 | 10.56° C | 67% | 1017.8 hPa | 0 mm | - | - | - |
| 1777764906 | 11.11° C | 66% | 1018 hPa | 0 mm | - | - | - |
| 1777762805 | 11.67° C | 64% | 1018.1 hPa | 0 mm | - | - | - |
| 1777761605 | 11.67° C | 64% | 1018.3 hPa | 0 mm | - | - | - |
| 1777761005 | 12.22° C | 63% | 1018.2 hPa | 0 mm | - | - | - |
| 1777760405 | 12.22° C | 62% | 1018 hPa | 0 mm | - | - | - |
| 1777755305 | 14.44° C | 56% | 1018.4 hPa | 0 mm | - | - | - |
| 1777753505 | 15° C | 53% | 1018.5 hPa | 0 mm | - | - | - |
| 1777751406 | 16.67° C | 48% | 1018.5 hPa | 0 mm | - | - | - |
| 1777747505 | 19.44° C | 42% | 1018.4 hPa | 0 mm | - | - | - |
| 1777746606 | 20° C | 39% | 1018.3 hPa | 0 mm | - | - | - |
| 1777743605 | 22.22° C | 34% | 1018.1 hPa | 0 mm | - | - | - |
| 1777742705 | 22.78° C | 32% | 1018.2 hPa | 0 mm | - | - | - |
| 1777742104 | 23.33° C | 32% | 1018.2 hPa | 0 mm | - | - | - |
| 1777740005 | 22.78° C | 31% | 1018.3 hPa | 0 mm | - | - | - |
* Rain latest hour (hover to see other rain measurements)
** Current wind speed in m/s (hover to see current wind gust speed)